Time;durP1;ratioP1;P1;durP2;ratioP2;P2;SDS_P1;SDS_P2;PMS_P1;PMS_P2;Temp;Humidity;BMP_temperature;BMP_pressure;BME280_temperature;BME280_humidity;BME280_pressure;Samples;Min_cycle;Max_cycle;Signal;HPM_P1;HPM_P2
2021/12/10 00:02:19;;;;;;;;;;;;;;;22.02;31.09;97387.72;5100166;28;1901;-77
2021/12/10 00:04:45;;;;;;;;;;;;;;;21.92;31.09;97386.91;5098355;28;934;-77
2021/12/10 00:07:18;;;;;;;;;;;;;;;21.74;31.44;97392.44;5099465;28;1720;-77
2021/12/10 00:10:09;;;;;;;;;;;;;;;21.62;31.35;97388.41;5098753;28;918;-77
2021/12/10 00:12:36;;;;;;;;;;;;;;;21.60;31.58;97390.88;5076917;28;1084;-77
2021/12/10 00:15:02;;;;;;;;;;;;;;;21.91;31.05;97388.13;5075646;28;955;-77
2021/12/10 00:17:28;;;;;;;;;;;;;;;21.90;30.77;97392.22;5076260;28;1671;-77
2021/12/10 00:19:56;;;;;;;;;;;;;;;21.97;30.46;97379.84;5075443;28;1763;-77
2021/12/10 00:22:23;;;;;;;;;;;;;;;21.76;30.62;97387.91;5056648;28;1980;-77
2021/12/10 00:24:49;;;;;;;;;;;;;;;21.63;30.86;97389.97;5055787;28;997;-77
2021/12/10 00:27:15;;;;;;;;;;;;;;;21.75;31.43;97383.47;5056825;28;1592;-77
2021/12/10 00:29:42;;;;;;;;;;;;;;;21.95;30.98;97382.34;5056008;28;937;-78
2021/12/10 00:32:16;;;;;;;;;;;;;;;22.00;30.65;97367.56;5057072;28;1025;-77
2021/12/10 00:34:43;;;;;;;;;;;;;;;22.09;30.52;97376.13;5040166;28;925;-77
2021/12/10 00:37:09;;;;;;;;;;;;;;;21.93;30.34;97370.69;5044453;28;1559;-77
2021/12/10 00:39:39;;;;;;;;;;;;;;;21.62;30.34;97382.75;5035780;28;1172;-77
2021/12/10 00:42:06;;;;;;;;;;;;;;;21.67;30.73;97373.66;5016270;28;1910;-77
2021/12/10 00:44:31;;;;;;;;;;;;;;;21.83;30.91;97364.97;5015611;28;1112;-77
2021/12/10 00:46:57;;;;;;;;;;;;;;;22.11;30.43;97370.81;5025951;28;1579;-77
2021/12/10 00:49:22;;;;;;;;;;;;;;;22.09;30.10;97373.31;5025545;28;1051;-78
2021/12/10 00:51:47;;;;;;;;;;;;;;;21.79;30.53;97375.63;5016196;28;1006;-76
2021/12/10 00:54:13;;;;;;;;;;;;;;;21.70;30.17;97372.72;5050552;28;952;-77
2021/12/10 00:56:40;;;;;;;;;;;;;;;21.63;29.99;97361.69;5046662;28;1475;-77
2021/12/10 00:59:06;;;;;;;;;;;;;;;21.83;30.77;97359.31;5035312;28;1225;-77
2021/12/10 01:01:32;;;;;;;;;;;;;;;21.81;30.64;97356.16;5035453;28;1501;-77
2021/12/10 01:04:08;;;;;;;;;;;;;;;21.95;30.16;97357.63;5035155;28;1918;-77
2021/12/10 01:06:34;;;;;;;;;;;;;;;21.92;29.90;97371.94;5035518;28;1638;-77
2021/12/10 01:09:04;;;;;;;;;;;;;;;21.72;30.14;97370.25;5035022;28;1135;-77
2021/12/10 01:11:31;;;;;;;;;;;;;;;21.45;30.59;97370.00;5036134;28;950;-77
2021/12/10 01:14:02;;;;;;;;;;;;;;;21.66;30.38;97374.09;5068942;28;1534;-76
2021/12/10 01:27:00;;;;;;;;;;;;;;;21.39;30.78;97369.03;5075986;28;1509;-77
2021/12/10 01:29:28;;;;;;;;;;;;;;;21.87;31.26;97376.16;5079951;28;912;-77
2021/12/10 01:31:53;;;;;;;;;;;;;;;22.48;30.41;97363.28;5098373;28;939;-77
2021/12/10 01:34:19;;;;;;;;;;;;;;;21.98;31.12;97370.09;5096812;28;886;-77
2021/12/10 01:36:44;;;;;;;;;;;;;;;22.04;30.30;97359.75;5097136;28;1611;-77
2021/12/10 01:39:11;;;;;;;;;;;;;;;21.82;30.26;97357.72;5097363;28;881;-77
2021/12/10 01:41:39;;;;;;;;;;;;;;;21.66;30.99;97337.31;5097850;28;1358;-76
2021/12/10 01:44:14;;;;;;;;;;;;;;;21.80;31.26;97326.22;5097475;28;1905;-77
2021/12/10 01:46:40;;;;;;;;;;;;;;;21.91;31.16;97336.34;5097875;28;1493;-77
2021/12/10 01:49:06;;;;;;;;;;;;;;;21.83;30.83;97327.38;5096775;28;901;-77
2021/12/10 01:51:33;;;;;;;;;;;;;;;21.64;31.10;97309.47;5098020;28;975;-77
2021/12/10 01:54:01;;;;;;;;;;;;;;;21.56;30.89;97327.97;5093723;28;980;-77
2021/12/10 01:56:28;;;;;;;;;;;;;;;21.70;31.20;97303.97;5078371;28;1545;-77
2021/12/10 01:58:54;;;;;;;;;;;;;;;21.68;31.50;97326.31;5094335;28;1077;-77
2021/12/10 02:01:20;;;;;;;;;;;;;;;21.73;31.32;97311.56;5077594;28;1478;-77
2021/12/10 02:03:49;;;;;;;;;;;;;;;21.77;31.03;97315.84;5085873;28;1910;-77
2021/12/10 02:06:14;;;;;;;;;;;;;;;21.93;31.24;97308.38;5099651;28;1196;-77
2021/12/10 02:08:40;;;;;;;;;;;;;;;21.70;31.06;97301.94;5057413;28;1020;-76
2021/12/10 02:11:05;;;;;;;;;;;;;;;21.66;30.71;97309.81;5059291;28;1259;-77
2021/12/10 02:13:31;;;;;;;;;;;;;;;21.61;31.01;97296.25;5048549;28;1597;-77
2021/12/10 02:15:56;;;;;;;;;;;;;;;21.67;31.36;97300.06;5039039;28;1002;-77
2021/12/10 02:18:22;;;;;;;;;;;;;;;21.69;31.32;97286.22;5042616;28;1531;-77
2021/12/10 02:21:03;;;;;;;;;;;;;;;21.94;30.80;97312.78;5058578;28;1162;-77
2021/12/10 02:23:29;;;;;;;;;;;;;;;21.72;30.90;97307.16;5057031;28;1909;-76
2021/12/10 02:25:55;;;;;;;;;;;;;;;21.55;30.59;97304.53;5058903;28;1136;-77
2021/12/10 02:28:20;;;;;;;;;;;;;;;21.66;31.04;97303.31;5057557;28;1470;-77
2021/12/10 02:30:46;;;;;;;;;;;;;;;21.81;31.00;97301.53;5058742;28;1032;-76
2021/12/10 02:33:11;;;;;;;;;;;;;;;21.77;30.94;97298.84;5040721;28;1162;-77
2021/12/10 02:35:37;;;;;;;;;;;;;;;22.07;30.29;97299.31;5057966;28;996;-77
2021/12/10 02:38:03;;;;;;;;;;;;;;;21.95;30.16;97303.03;5025680;28;1522;-77
2021/12/10 02:40:29;;;;;;;;;;;;;;;21.55;30.26;97261.25;5112380;28;1058;-77
2021/12/10 02:42:54;;;;;;;;;;;;;;;21.47;30.60;97293.94;5118071;28;1906;-77
2021/12/10 02:45:21;;;;;;;;;;;;;;;21.64;31.30;97292.47;5118879;28;938;-77
2021/12/10 02:47:46;;;;;;;;;;;;;;;21.77;30.96;97298.06;5100934;28;1009;-77
2021/12/10 02:50:12;;;;;;;;;;;;;;;21.84;30.66;97292.13;5117966;28;1501;-77
2021/12/10 02:52:37;;;;;;;;;;;;;;;21.93;30.37;97297.84;5118538;28;980;-77
2021/12/10 02:55:04;;;;;;;;;;;;;;;21.64;30.74;97289.63;5117716;28;1034;-77
2021/12/10 02:57:29;;;;;;;;;;;;;;;21.55;30.46;97275.41;5118991;28;952;-77
2021/12/10 02:59:58;;;;;;;;;;;;;;;21.56;30.72;97271.38;5117842;28;1549;-77
2021/12/10 03:02:25;;;;;;;;;;;;;;;21.73;30.62;97269.88;5119048;28;1972;-77
2021/12/10 03:04:50;;;;;;;;;;;;;;;21.81;30.67;97276.84;5056482;28;1029;-77
2021/12/10 03:07:16;;;;;;;;;;;;;;;21.89;30.29;97270.91;5057661;28;1088;-77
2021/12/10 03:09:42;;;;;;;;;;;;;;;21.83;30.38;97276.38;5056526;28;1494;-77
2021/12/10 03:12:08;;;;;;;;;;;;;;;21.53;30.37;97283.59;5037412;28;1116;-76
2021/12/10 03:14:34;;;;;;;;;;;;;;;21.44;30.54;97280.69;5036312;28;1476;-76
2021/12/10 03:17:01;;;;;;;;;;;;;;;21.67;31.40;97276.63;5037724;28;1005;-77
2021/12/10 03:19:26;;;;;;;;;;;;;;;22.25;31.21;97290.91;5036431;28;913;-77
2021/12/10 03:21:52;;;;;;;;;;;;;;;22.51;30.64;97290.69;5037628;28;963;-77
2021/12/10 03:24:22;;;;;;;;;;;;;;;22.22;30.40;97289.00;5052706;28;1512;-77
2021/12/10 03:26:51;;;;;;;;;;;;;;;21.88;30.28;97287.09;5037360;28;944;-77
2021/12/10 03:29:17;;;;;;;;;;;;;;;21.63;30.87;97288.06;4996977;28;943;-76
2021/12/10 03:31:43;;;;;;;;;;;;;;;21.75;31.19;97283.56;4999801;28;1012;-77
2021/12/10 03:34:08;;;;;;;;;;;;;;;21.93;31.08;97274.38;4996720;28;1455;-77
2021/12/10 03:36:34;;;;;;;;;;;;;;;21.90;30.99;97284.59;4997591;28;949;-77
2021/12/10 03:38:59;;;;;;;;;;;;;;;21.72;30.96;97279.63;4996983;28;1092;-77
2021/12/10 03:41:25;;;;;;;;;;;;;;;21.56;31.02;97280.63;5003308;28;1083;-77
2021/12/10 03:43:50;;;;;;;;;;;;;;;21.62;30.79;97275.16;5018519;28;1898;-77
2021/12/10 03:46:16;;;;;;;;;;;;;;;21.75;31.08;97281.53;5036989;28;945;-76
2021/12/10 03:48:42;;;;;;;;;;;;;;;21.69;31.17;97269.22;5038670;28;975;-77
2021/12/10 03:51:08;;;;;;;;;;;;;;;21.88;31.13;97275.00;5037414;28;1032;-76
2021/12/10 03:53:34;;;;;;;;;;;;;;;21.66;31.02;97275.81;5014181;28;1487;-77
2021/12/10 03:56:00;;;;;;;;;;;;;;;21.39;31.17;97261.47;5017465;28;1026;-77
2021/12/10 03:58:26;;;;;;;;;;;;;;;21.38;31.10;97271.22;5015591;28;1039;-77
2021/12/10 04:00:51;;;;;;;;;;;;;;;21.51;31.68;97263.47;5032160;28;1148;-77
2021/12/10 04:03:18;;;;;;;;;;;;;;;21.74;31.13;97271.44;5037950;28;1975;-77
2021/12/10 04:05:43;;;;;;;;;;;;;;;21.78;30.91;97272.09;5076353;28;883;-76
2021/12/10 04:08:09;;;;;;;;;;;;;;;21.93;30.83;97271.56;5075950;28;918;-77
2021/12/10 04:10:34;;;;;;;;;;;;;;;21.59;30.99;97278.91;5076568;28;1136;-77
2021/12/10 04:13:00;;;;;;;;;;;;;;;21.45;30.95;97270.94;5075751;28;922;-77
2021/12/10 04:15:28;;;;;;;;;;;;;;;21.54;31.14;97285.16;5057413;28;1497;-77
2021/12/10 04:17:53;;;;;;;;;;;;;;;21.67;30.99;97283.06;5001498;28;1087;-77
2021/12/10 04:20:19;;;;;;;;;;;;;;;21.74;30.78;97288.44;4996370;28;1048;-77
2021/12/10 04:22:46;;;;;;;;;;;;;;;21.88;30.73;97286.31;5041361;28;1910;-77
2021/12/10 04:25:12;;;;;;;;;;;;;;;21.64;30.72;97295.31;5071777;28;1497;-76
2021/12/10 04:27:38;;;;;;;;;;;;;;;21.62;30.41;97297.81;5074822;28;964;-76
2021/12/10 04:30:04;;;;;;;;;;;;;;;21.60;30.68;97297.47;5054748;28;1054;-77
2021/12/10 04:32:29;;;;;;;;;;;;;;;21.98;31.46;97293.63;5053463;28;977;-76
2021/12/10 04:34:55;;;;;;;;;;;;;;;22.57;30.69;97292.44;5055078;28;1499;-77
2021/12/10 04:37:20;;;;;;;;;;;;;;;21.68;31.61;97290.31;5055182;28;954;-77
2021/12/10 04:39:48;;;;;;;;;;;;;;;21.89;31.10;97294.34;5054737;28;1056;-77
2021/12/10 04:42:17;;;;;;;;;;;;;;;21.60;30.73;97286.16;5055451;28;1902;-76
2021/12/10 04:44:43;;;;;;;;;;;;;;;21.25;32.08;97286.22;5054544;28;1240;-77
2021/12/10 04:47:09;;;;;;;;;;;;;;;22.03;31.26;97288.13;5055558;28;1627;-77
2021/12/10 04:49:34;;;;;;;;;;;;;;;21.93;31.04;97282.88;5087589;28;909;-76
2021/12/10 04:52:00;;;;;;;;;;;;;;;21.92;31.35;97287.75;5095450;28;1019;-77
2021/12/10 04:54:25;;;;;;;;;;;;;;;21.78;31.18;97294.75;5095194;28;1054;-77
2021/12/10 04:56:51;;;;;;;;;;;;;;;21.59;31.25;97287.41;5095630;28;981;-77
2021/12/10 04:59:17;;;;;;;;;;;;;;;21.48;31.48;97287.81;5094536;28;1028;-76
2021/12/10 05:01:44;;;;;;;;;;;;;;;21.73;31.59;97295.38;5081305;28;2128;-76
2021/12/10 05:04:09;;;;;;;;;;;;;;;21.96;30.96;97290.44;5076915;28;1906;-77
2021/12/10 05:06:35;;;;;;;;;;;;;;;21.96;31.09;97282.72;5077882;28;976;-77
2021/12/10 05:09:01;;;;;;;;;;;;;;;21.84;30.86;97280.78;5074323;28;1003;-77
2021/12/10 05:11:26;;;;;;;;;;;;;;;21.68;31.01;97267.66;5078171;28;985;-77
2021/12/10 05:13:52;;;;;;;;;;;;;;;21.46;30.90;97272.56;5076655;28;949;-77
2021/12/10 05:16:17;;;;;;;;;;;;;;;21.44;31.56;97275.81;5078014;28;1109;-76
2021/12/10 05:18:46;;;;;;;;;;;;;;;21.68;31.27;97267.66;5076746;28;912;-77
2021/12/10 05:21:11;;;;;;;;;;;;;;;21.72;31.26;97268.31;5078001;28;975;-77
2021/12/10 05:23:37;;;;;;;;;;;;;;;21.90;30.75;97272.47;5076424;28;1902;-77
2021/12/10 05:26:03;;;;;;;;;;;;;;;21.55;31.04;97272.59;5076094;28;974;-77
2021/12/10 05:28:29;;;;;;;;;;;;;;;21.36;30.90;97270.91;5076552;28;982;-77
2021/12/10 05:30:56;;;;;;;;;;;;;;;21.58;31.12;97266.00;5077673;28;925;-76
2021/12/10 05:33:24;;;;;;;;;;;;;;;21.85;30.83;97266.16;5079511;28;1384;-77
2021/12/10 05:35:50;;;;;;;;;;;;;;;21.87;30.52;97257.22;5075579;28;1016;-77
2021/12/10 05:38:17;;;;;;;;;;;;;;;21.85;30.25;97260.50;5076471;28;927;-76
2021/12/10 05:40:43;;;;;;;;;;;;;;;21.65;30.61;97254.41;5077713;28;937;-76
2021/12/10 05:43:09;;;;;;;;;;;;;;;20.33;30.58;97071.84;5094146;28;1968;-77
2021/12/10 05:45:34;;;;;;;;;;;;;;;21.49;30.73;97240.47;5095343;28;958;-77
2021/12/10 05:47:59;;;;;;;;;;;;;;;21.73;30.64;97241.56;5077453;28;948;-77
2021/12/10 05:50:25;;;;;;;;;;;;;;;21.76;30.67;97251.97;5094673;28;1096;-77
2021/12/10 05:52:51;;;;;;;;;;;;;;;21.91;30.36;97242.91;5094438;28;1078;-77
2021/12/10 05:55:16;;;;;;;;;;;;;;;21.72;30.50;97256.97;5094621;28;969;-77
2021/12/10 05:57:42;;;;;;;;;;;;;;;21.44;30.26;97263.72;5090166;28;1054;-77
2021/12/10 06:00:10;;;;;;;;;;;;;;;21.44;30.53;97260.88;5093059;28;1233;-77
2021/12/10 06:02:35;;;;;;;;;;;;;;;21.66;31.49;97264.50;5085589;28;1963;-76
2021/12/10 06:05:01;;;;;;;;;;;;;;;22.32;30.58;97270.78;5073963;28;924;-77
2021/12/10 06:07:26;;;;;;;;;;;;;;;22.09;31.01;97266.44;5074341;28;1058;-77
2021/12/10 06:09:51;;;;;;;;;;;;;;;21.44;32.67;97252.41;5074063;28;985;-77
2021/12/10 06:12:17;;;;;;;;;;;;;;;21.25;33.02;97260.75;5075018;28;922;-77
2021/12/10 06:14:42;;;;;;;;;;;;;;;21.40;32.81;97257.41;5075322;28;928;-77
2021/12/10 06:17:08;;;;;;;;;;;;;;;21.42;32.96;97261.34;5077043;28;847;-77
2021/12/10 06:19:33;;;;;;;;;;;;;;;21.67;32.47;97266.06;5074044;28;1097;-78
2021/12/10 06:21:59;;;;;;;;;;;;;;;22.07;31.73;97279.47;5076865;28;967;-77
2021/12/10 06:24:24;;;;;;;;;;;;;;;21.90;32.08;97283.81;5076152;28;1132;-77
2021/12/10 06:26:52;;;;;;;;;;;;;;;21.82;31.47;97291.81;5077140;28;1260;-77
2021/12/10 06:29:17;;;;;;;;;;;;;;;21.55;31.66;97289.56;5076505;28;917;-77
2021/12/10 06:31:43;;;;;;;;;;;;;;;21.51;31.60;97288.94;5074497;28;986;-77
2021/12/10 06:34:08;;;;;;;;;;;;;;;21.57;32.26;97289.91;5040551;28;970;-76
2021/12/10 06:36:35;;;;;;;;;;;;;;;21.77;32.43;97281.88;5074741;28;991;-77
2021/12/10 06:39:02;;;;;;;;;;;;;;;21.82;32.33;97284.09;5073617;28;974;-76
2021/12/10 06:41:27;;;;;;;;;;;;;;;21.91;32.25;97283.34;5074976;28;968;-77
2021/12/10 06:43:53;;;;;;;;;;;;;;;21.76;31.83;97283.13;5075799;28;1913;-77
2021/12/10 06:46:18;;;;;;;;;;;;;;;21.51;32.28;97283.28;5074478;28;1106;-77
2021/12/10 06:48:44;;;;;;;;;;;;;;;21.38;31.93;97282.56;5073057;28;966;-77
2021/12/10 06:51:19;;;;;;;;;;;;;;;21.65;32.18;97274.22;5077217;28;931;-77
2021/12/10 06:53:44;;;;;;;;;;;;;;;21.73;32.07;97275.53;5042984;28;1124;-77
2021/12/10 06:56:10;;;;;;;;;;;;;;;21.88;31.79;97275.00;5077607;28;986;-77
2021/12/10 06:58:35;;;;;;;;;;;;;;;21.78;31.33;97277.78;5026551;28;956;-77
2021/12/10 07:01:06;;;;;;;;;;;;;;;21.68;31.12;97278.97;5078309;28;952;-77
2021/12/10 07:03:31;;;;;;;;;;;;;;;21.46;31.33;97278.22;5078340;28;1905;-76
2021/12/10 07:05:57;;;;;;;;;;;;;;;21.66;31.61;97284.31;5098412;28;923;-77
2021/12/10 07:08:23;;;;;;;;;;;;;;;21.73;31.49;97289.69;5096769;28;984;-77
2021/12/10 07:10:48;;;;;;;;;;;;;;;21.74;31.46;97288.44;5063842;28;928;-77
2021/12/10 07:13:15;;;;;;;;;;;;;;;21.85;31.41;97283.16;5096557;28;1084;-76
2021/12/10 07:15:41;;;;;;;;;;;;;;;21.52;31.26;97277.16;5056885;28;1227;-77
2021/12/10 07:18:07;;;;;;;;;;;;;;;21.41;31.17;97281.63;5056590;28;1006;-77
2021/12/10 07:20:32;;;;;;;;;;;;;;;21.31;31.30;97284.41;5040048;28;1235;-76
2021/12/10 07:22:58;;;;;;;;;;;;;;;21.74;31.09;97282.78;5056367;28;1989;-77
2021/12/10 07:25:23;;;;;;;;;;;;;;;21.75;31.01;97278.69;5056585;28;1019;-77
2021/12/10 07:27:49;;;;;;;;;;;;;;;21.88;30.76;97280.66;5056670;28;1029;-77
2021/12/10 07:30:14;;;;;;;;;;;;;;;21.56;30.82;97271.38;5055989;28;1248;-77
2021/12/10 07:32:39;;;;;;;;;;;;;;;21.43;30.97;97281.97;5056478;28;998;-77
2021/12/10 07:35:06;;;;;;;;;;;;;;;21.52;30.96;97288.47;5056545;28;994;-77
2021/12/10 07:37:31;;;;;;;;;;;;;;;22.14;31.19;97292.63;5056772;28;959;-77
2021/12/10 07:39:57;;;;;;;;;;;;;;;22.61;30.74;97303.63;5056135;28;1041;-77
2021/12/10 07:42:22;;;;;;;;;;;;;;;22.43;30.95;97297.91;5056474;28;1910;-76
2021/12/10 07:44:49;;;;;;;;;;;;;;;21.87;32.52;97301.75;5066565;28;1303;-76
2021/12/10 07:47:15;;;;;;;;;;;;;;;21.50;33.23;97304.31;5066517;28;1271;-77
2021/12/10 07:49:41;;;;;;;;;;;;;;;21.43;33.30;97296.91;5065366;28;1287;-77
2021/12/10 07:52:14;;;;;;;;;;;;;;;21.85;32.36;97300.13;5075630;28;1336;-77
2021/12/10 07:54:40;;;;;;;;;;;;;;;21.98;32.33;97300.06;5087904;28;1223;-77
2021/12/10 07:57:05;;;;;;;;;;;;;;;22.14;31.42;97299.06;5088767;28;1287;-77
2021/12/10 07:59:31;;;;;;;;;;;;;;;21.91;31.51;97296.72;5090349;28;1184;-77
2021/12/10 08:01:56;;;;;;;;;;;;;;;21.63;31.62;97293.72;5099504;28;1162;-77
2021/12/10 08:04:22;;;;;;;;;;;;;;;21.50;32.04;97290.16;5098796;28;1910;-77
2021/12/10 08:06:48;;;;;;;;;;;;;;;21.70;32.47;97299.09;5099584;28;914;-77
2021/12/10 08:09:13;;;;;;;;;;;;;;;21.88;32.74;97297.66;5098724;28;900;-77
2021/12/10 08:11:39;;;;;;;;;;;;;;;22.06;32.07;97287.19;5097806;28;987;-77
2021/12/10 08:14:05;;;;;;;;;;;;;;;21.82;32.38;97284.09;5097953;28;942;-77
2021/12/10 08:16:31;;;;;;;;;;;;;;;21.63;32.09;97282.41;5096838;28;1004;-77
2021/12/10 08:18:57;;;;;;;;;;;;;;;21.49;32.08;97288.59;5095447;28;1055;-76
2021/12/10 08:21:22;;;;;;;;;;;;;;;21.76;32.13;97285.94;5096594;28;961;-77
2021/12/10 08:23:50;;;;;;;;;;;;;;;21.90;31.72;97283.81;5095693;28;1901;-77
2021/12/10 08:26:15;;;;;;;;;;;;;;;21.91;31.78;97274.84;5096601;28;1146;-77
2021/12/10 08:28:41;;;;;;;;;;;;;;;21.84;31.72;97275.91;5095411;28;965;-77
2021/12/10 08:31:06;;;;;;;;;;;;;;;21.71;31.29;97278.06;5096843;28;1141;-78
2021/12/10 08:33:32;;;;;;;;;;;;;;;21.50;31.60;97264.69;5095189;28;881;-78
2021/12/10 08:36:02;;;;;;;;;;;;;;;21.37;31.60;97270.44;5096479;28;1039;-77
2021/12/10 08:38:27;;;;;;;;;;;;;;;21.51;32.04;97280.44;5095423;28;912;-77
2021/12/10 08:40:57;;;;;;;;;;;;;;;21.70;31.61;97270.78;5096168;28;930;-77
2021/12/10 08:43:22;;;;;;;;;;;;;;;21.79;31.64;97268.03;5054271;28;1906;-77
2021/12/10 08:45:48;;;;;;;;;;;;;;;21.60;31.14;97260.66;5056000;28;990;-77
2021/12/10 08:48:13;;;;;;;;;;;;;;;21.62;31.22;97258.19;5070527;28;1021;-77
2021/12/10 08:50:39;;;;;;;;;;;;;;;21.45;31.04;97243.47;5075865;28;953;-77
2021/12/10 08:53:05;;;;;;;;;;;;;;;21.90;31.17;97244.94;5074154;28;940;-76
2021/12/10 08:55:31;;;;;;;;;;;;;;;21.91;31.09;97234.41;5055255;28;993;-76
2021/12/10 08:57:57;;;;;;;;;;;;;;;22.01;30.64;97238.84;5054886;28;920;-77
2021/12/10 09:00:22;;;;;;;;;;;;;;;21.99;30.44;97235.69;5044121;28;1142;-77
2021/12/10 09:02:48;;;;;;;;;;;;;;;21.71;30.84;97237.59;5045106;28;1906;-77
2021/12/10 09:05:14;;;;;;;;;;;;;;;21.57;30.90;97222.78;5043235;28;1411;-77
2021/12/10 09:07:42;;;;;;;;;;;;;;;21.70;31.13;97222.66;5045252;28;1265;-77
2021/12/10 09:10:08;;;;;;;;;;;;;;;21.79;31.03;97216.25;5044876;28;1118;-77
2021/12/10 09:12:33;;;;;;;;;;;;;;;21.84;30.87;97201.50;5012451;28;1509;-77
2021/12/10 09:15:01;;;;;;;;;;;;;;;21.91;30.59;97194.75;5074455;28;1272;-77
2021/12/10 09:17:27;;;;;;;;;;;;;;;21.62;30.73;97184.56;5084796;28;1212;-77
2021/12/10 09:19:53;;;;;;;;;;;;;;;21.55;30.70;97179.19;5076154;28;1252;-77
2021/12/10 09:22:18;;;;;;;;;;;;;;;21.59;30.98;97182.66;5092364;28;1964;-76
2021/12/10 09:24:44;;;;;;;;;;;;;;;21.83;30.58;97189.38;5089135;28;1244;-77
2021/12/10 09:27:09;;;;;;;;;;;;;;;21.88;30.64;97195.69;5095007;28;917;-77
2021/12/10 09:29:37;;;;;;;;;;;;;;;22.12;30.13;97193.09;5077195;28;1039;-76
2021/12/10 09:32:03;;;;;;;;;;;;;;;21.84;30.08;97196.63;5094678;28;991;-77
2021/12/10 09:34:29;;;;;;;;;;;;;;;21.53;30.49;97195.84;5079067;28;950;-78
2021/12/10 09:36:55;;;;;;;;;;;;;;;21.52;30.59;97203.56;5100307;28;978;-78
2021/12/10 09:39:21;;;;;;;;;;;;;;;21.78;30.47;97198.50;5096377;28;960;-77
2021/12/10 09:41:47;;;;;;;;;;;;;;;21.94;30.08;97191.00;5091291;28;1393;-78
2021/12/10 09:44:12;;;;;;;;;;;;;;;22.06;30.17;97178.75;5088679;28;1914;-77
2021/12/10 09:46:38;;;;;;;;;;;;;;;21.81;30.17;97180.56;5087753;28;1306;-78
2021/12/10 09:49:04;;;;;;;;;;;;;;;21.61;30.35;97171.69;5078748;28;1379;-78
2021/12/10 09:51:31;;;;;;;;;;;;;;;21.57;30.28;97171.03;5090279;28;1243;-78
2021/12/10 09:53:57;;;;;;;;;;;;;;;21.77;30.55;97174.25;5081072;28;1278;-77
2021/12/10 09:56:22;;;;;;;;;;;;;;;21.84;30.51;97168.28;5079906;28;1189;-77
2021/12/10 09:58:48;;;;;;;;;;;;;;;21.95;30.02;97167.06;5077350;28;885;-77
2021/12/10 10:01:18;;;;;;;;;;;;;;;21.84;30.24;97162.63;5079672;28;1327;-76
2021/12/10 10:03:45;;;;;;;;;;;;;;;21.83;30.06;97177.28;5077321;28;1973;-77
2021/12/10 10:06:10;;;;;;;;;;;;;;;21.55;30.45;97165.03;5080234;28;895;-77
2021/12/10 10:08:36;;;;;;;;;;;;;;;21.43;30.20;97171.59;5076938;28;848;-77
2021/12/10 10:11:05;;;;;;;;;;;;;;;21.43;30.68;97168.75;5080064;28;1121;-78
2021/12/10 10:13:31;;;;;;;;;;;;;;;21.84;30.27;97171.13;5075368;28;1480;-78
2021/12/10 10:15:58;;;;;;;;;;;;;;;21.92;30.29;97168.03;5098519;28;856;-78
2021/12/10 10:18:24;;;;;;;;;;;;;;;21.75;30.04;97168.25;5086329;28;1364;-77
2021/12/10 10:20:51;;;;;;;;;;;;;;;21.45;30.52;97160.56;5083227;28;1252;-78
2021/12/10 10:23:17;;;;;;;;;;;;;;;21.53;30.09;97157.00;5058259;28;1910;-78
2021/12/10 10:25:44;;;;;;;;;;;;;;;21.60;30.47;97155.94;5079060;28;1231;-77
2021/12/10 10:28:11;;;;;;;;;;;;;;;22.12;30.63;97156.28;5073181;28;1350;-78
2021/12/10 10:30:52;;;;;;;;;;;;;;;22.59;30.21;97153.06;5092213;28;1237;-79
2021/12/10 10:33:17;;;;;;;;;;;;;;;21.85;32.00;97152.88;5099285;28;956;-78
2021/12/10 10:35:44;;;;;;;;;;;;;;;21.28;32.88;97143.81;5100536;28;1054;-76
2021/12/10 10:38:10;;;;;;;;;;;;;;;21.68;32.29;97154.41;5099444;28;890;-78
2021/12/10 10:40:37;;;;;;;;;;;;;;;21.55;32.80;97148.03;5100767;28;960;-77
2021/12/10 10:43:04;;;;;;;;;;;;;;;21.44;33.15;97144.84;5059224;28;1887;-78
2021/12/10 10:45:30;;;;;;;;;;;;;;;21.47;32.96;97155.25;5078200;28;997;-77
2021/12/10 10:47:57;;;;;;;;;;;;;;;21.97;32.30;97144.75;5079419;28;881;-78
2021/12/10 10:50:31;;;;;;;;;;;;;;;22.11;31.27;97155.50;5079577;28;1098;-78
2021/12/10 10:53:00;;;;;;;;;;;;;;;21.87;31.67;97155.25;5079237;28;971;-78
2021/12/10 10:55:30;;;;;;;;;;;;;;;21.53;31.89;97153.41;5079516;28;970;-78
2021/12/10 10:58:03;;;;;;;;;;;;;;;21.85;32.10;97163.41;5078870;28;966;-78
2021/12/10 11:00:37;;;;;;;;;;;;;;;22.02;32.32;97152.59;5059821;28;1227;-77
2021/12/10 11:03:04;;;;;;;;;;;;;;;22.03;32.23;97157.03;5075521;28;1992;-77
2021/12/10 11:05:29;;;;;;;;;;;;;;;21.93;31.99;97159.06;5059193;28;1222;-78
2021/12/10 11:07:56;;;;;;;;;;;;;;;21.60;32.32;97161.59;5058945;28;944;-78
2021/12/10 11:10:30;;;;;;;;;;;;;;;21.75;31.75;97154.09;5058428;28;1037;-78
2021/12/10 11:13:06;;;;;;;;;;;;;;;21.69;32.00;97149.53;5058537;28;967;-78
2021/12/10 11:15:31;;;;;;;;;;;;;;;21.96;31.97;97145.97;5059303;28;1043;-77
2021/12/10 11:17:57;;;;;;;;;;;;;;;21.92;32.00;97129.16;5058315;28;934;-77
2021/12/10 11:20:25;;;;;;;;;;;;;;;22.02;31.75;97121.44;5058585;28;943;-77
2021/12/10 11:22:56;;;;;;;;;;;;;;;21.80;31.71;97122.34;5058437;28;1965;-77
2021/12/10 11:25:23;;;;;;;;;;;;;;;21.69;31.51;97119.16;5057399;28;1067;-77
2021/12/10 11:27:49;;;;;;;;;;;;;;;21.53;31.39;97119.44;5038505;28;998;-78
2021/12/10 11:30:17;;;;;;;;;;;;;;;21.74;31.78;97118.56;5038735;28;980;-77
2021/12/10 11:32:49;;;;;;;;;;;;;;;21.97;31.22;97124.94;5058970;28;1103;-77
2021/12/10 11:35:18;;;;;;;;;;;;;;;22.23;30.69;97119.81;5041183;28;1023;-77
2021/12/10 11:37:55;;;;;;;;;;;;;;;22.07;30.73;97118.00;5037720;28;978;-77
2021/12/10 11:40:31;;;;;;;;;;;;;;;21.73;30.91;97108.50;5038146;28;979;-77
2021/12/10 11:43:00;;;;;;;;;;;;;;;21.54;30.98;97106.84;5047550;28;1906;-77
2021/12/10 11:45:31;;;;;;;;;;;;;;;21.81;31.41;97104.13;5058394;28;993;-77
2021/12/10 11:48:05;;;;;;;;;;;;;;;21.95;31.04;97104.75;5058386;28;1016;-78
2021/12/10 11:50:31;;;;;;;;;;;;;;;22.04;30.86;97101.94;5057951;28;931;-77
2021/12/10 11:53:07;;;;;;;;;;;;;;;21.90;30.70;97100.50;5057376;28;997;-77
2021/12/10 11:55:34;;;;;;;;;;;;;;;21.76;30.71;97109.59;5018165;28;1001;-77
2021/12/10 11:57:59;;;;;;;;;;;;;;;21.61;30.76;97092.41;5017697;28;1027;-77
2021/12/10 12:00:28;;;;;;;;;;;;;;;21.63;30.79;97095.56;5018250;28;1000;-78
2021/12/10 12:02:54;;;;;;;;;;;;;;;21.81;30.92;97081.47;5017365;28;1902;-78
2021/12/10 12:05:21;;;;;;;;;;;;;;;22.03;30.50;97080.56;5017351;28;1016;-77
2021/12/10 12:07:47;;;;;;;;;;;;;;;22.04;30.47;97102.72;5021933;28;1004;-77
2021/12/10 12:10:21;;;;;;;;;;;;;;;21.89;30.06;97103.81;5056935;28;961;-77
2021/12/10 12:12:47;;;;;;;;;;;;;;;21.62;30.65;97094.00;5057535;28;1133;-78
2021/12/10 12:15:12;;;;;;;;;;;;;;;21.42;30.83;97102.88;5057019;28;978;-77
2021/12/10 12:17:38;;;;;;;;;;;;;;;21.81;30.49;97106.13;5058435;28;966;-78
2021/12/10 12:20:09;;;;;;;;;;;;;;;21.93;30.34;97095.94;5056472;28;1052;-77
2021/12/10 12:25:38;;;;;;;;;;;;;;;21.82;30.47;97091.53;5040798;28;904;-77
2021/12/10 12:28:08;;;;;;;;;;;;;;;21.72;30.38;97094.81;5016950;28;1100;-77
2021/12/10 12:30:33;;;;;;;;;;;;;;;21.67;30.36;97090.53;5018321;28;1044;-77
2021/12/10 12:32:59;;;;;;;;;;;;;;;21.57;30.77;97086.09;5016979;28;998;-78
2021/12/10 12:35:29;;;;;;;;;;;;;;;21.93;30.13;97090.28;4984698;28;970;-78
2021/12/10 12:38:14;;;;;;;;;;;;;;;22.03;29.95;97089.84;5017371;28;1029;-77
2021/12/10 12:40:39;;;;;;;;;;;;;;;22.07;30.01;97101.00;5003576;28;1018;-77
2021/12/10 12:43:06;;;;;;;;;;;;;;;21.96;29.74;97089.34;5016887;28;1906;-77
2021/12/10 12:45:32;;;;;;;;;;;;;;;21.64;30.07;97111.28;4997628;28;1022;-78
2021/12/10 12:47:58;;;;;;;;;;;;;;;21.55;30.14;97111.25;4996851;28;989;-77
2021/12/10 12:50:23;;;;;;;;;;;;;;;21.72;30.69;97106.91;4997962;28;1059;-78
2021/12/10 12:52:49;;;;;;;;;;;;;;;21.88;30.12;97108.69;4997780;28;1012;-77
2021/12/10 12:55:14;;;;;;;;;;;;;;;21.85;30.29;97104.72;4997177;28;1316;-77
2021/12/10 12:57:40;;;;;;;;;;;;;;;22.03;30.18;97117.38;4998018;28;975;-78
2021/12/10 13:00:06;;;;;;;;;;;;;;;21.88;30.09;97105.06;4997312;28;1149;-77
2021/12/10 13:02:31;;;;;;;;;;;;;;;21.41;30.40;97072.22;5013757;28;1906;-76
2021/12/10 13:04:57;;;;;;;;;;;;;;;21.55;30.15;97111.25;5002333;28;1022;-77
2021/12/10 13:07:24;;;;;;;;;;;;;;;21.72;30.32;97126.72;5017599;28;946;-78
2021/12/10 13:09:56;;;;;;;;;;;;;;;21.73;30.21;97116.97;5016718;28;995;-77
2021/12/10 13:15:05;;;;;;;;;;;;;;;21.88;29.92;97134.19;5076151;28;1016;-78